Terminal Aerodrome Forecast
Issued by NWS

Home | Current Version | Previous Version | Text Only | Print | Product List | Glossary On
Versions: 1 2 3 4 5 6 7 8 9 10 11 12 13
815
FTUS45 KVEF 210520
TAFBIH
TAF
KBIH 210520Z 2106/2206 16012G18KT P6SM FEW120
     FM210700 34006KT P6SM SCT250
     FM211400 VRB04KT P6SM SCT250
     FM211900 17012G18KT P6SM SCT250=

USA.gov is the U.S. government's official web portal to all federal, state and local government web resources and services.